createdAt,value
2023-05-06T00:00:08.399Z,2.55
2023-05-06T00:02:44.352Z,2.88
2023-05-06T00:05:12.957Z,2.60
2023-05-06T00:07:41.865Z,2.65
2023-05-06T00:10:12.093Z,2.70
2023-05-06T00:12:40.966Z,2.75
2023-05-06T00:15:09.787Z,2.45
2023-05-06T00:17:38.304Z,2.67
2023-05-06T00:20:09.530Z,2.72
2023-05-06T00:22:37.895Z,2.65
2023-05-06T00:25:07.122Z,2.50
2023-05-06T00:27:36.950Z,2.90
2023-05-06T00:30:06.040Z,2.65
2023-05-06T00:32:34.740Z,2.55
2023-05-06T00:35:03.570Z,2.78
2023-05-06T00:37:31.904Z,2.30
2023-05-06T00:40:00.206Z,2.88
2023-05-06T00:42:28.506Z,2.60
2023-05-06T00:44:58.418Z,2.50
2023-05-06T00:47:26.932Z,2.42
2023-05-06T00:49:55.876Z,2.63
2023-05-06T00:52:24.244Z,2.45
2023-05-06T00:54:52.654Z,2.55
2023-05-06T00:57:21.065Z,2.28
2023-05-06T00:59:49.299Z,2.50
2023-05-06T01:02:18.994Z,2.30
2023-05-06T01:04:47.514Z,2.35
2023-05-06T01:07:26.743Z,2.40
2023-05-06T01:10:10.032Z,2.65
2023-05-06T01:12:50.000Z,2.45
2023-05-06T01:15:26.556Z,2.65
2023-05-06T01:17:59.771Z,2.60
2023-05-06T01:20:28.746Z,2.60
2023-05-06T01:22:57.737Z,2.70
2023-05-06T01:25:27.628Z,2.15
2023-05-06T01:27:56.085Z,2.35
2023-05-06T01:30:26.157Z,2.47
2023-05-06T01:33:04.779Z,2.40
2023-05-06T01:35:40.877Z,2.15
2023-05-06T01:38:17.353Z,2.20
2023-05-06T01:40:54.242Z,2.75
2023-05-06T01:43:23.649Z,2.72
2023-05-06T01:45:55.342Z,2.25
2023-05-06T01:48:25.856Z,2.65
2023-05-06T01:50:54.185Z,3.08
2023-05-06T01:53:22.518Z,2.67
2023-05-06T01:55:52.167Z,2.80
2023-05-06T01:58:20.465Z,2.35
2023-05-06T02:00:48.730Z,2.65
2023-05-06T02:03:17.170Z,2.50
2023-05-06T02:05:45.682Z,2.53
2023-05-06T02:08:13.942Z,2.55
2023-05-06T02:10:43.342Z,2.38
2023-05-06T02:13:13.722Z,2.60
2023-05-06T02:15:42.061Z,2.25
2023-05-06T02:18:15.068Z,2.40
2023-05-06T02:20:43.384Z,2.58
2023-05-06T02:23:16.366Z,3.05
2023-05-06T02:25:44.797Z,2.20
2023-05-06T02:28:15.845Z,2.50
2023-05-06T02:30:44.369Z,2.15
2023-05-06T02:33:12.663Z,2.30
2023-05-06T02:35:41.146Z,2.72
2023-05-06T02:38:10.272Z,2.58
2023-05-06T02:40:38.549Z,3.10
2023-05-06T02:43:06.880Z,2.47
2023-05-06T02:45:37.363Z,2.53
2023-05-06T02:48:06.165Z,2.58
2023-05-06T02:50:36.336Z,2.55
2023-05-06T02:53:04.682Z,2.33
2023-05-06T02:55:33.464Z,3.20
2023-05-06T02:58:01.771Z,2.75
2023-05-06T03:00:30.019Z,3.22
2023-05-06T03:02:59.949Z,2.63
2023-05-06T03:05:28.330Z,2.70
2023-05-06T03:07:56.700Z,2.33
2023-05-06T03:10:25.224Z,2.70
2023-05-06T03:12:53.550Z,2.67
2023-05-06T03:15:21.836Z,2.60
2023-05-06T03:17:50.240Z,2.90
2023-05-06T03:20:20.389Z,2.63
2023-05-06T03:22:53.490Z,2.88
2023-05-06T03:25:23.259Z,2.60
2023-05-06T03:27:52.197Z,2.72
2023-05-06T03:30:23.374Z,2.80
2023-05-06T03:32:56.990Z,3.08
2023-05-06T03:35:32.780Z,2.75
2023-05-06T03:38:02.527Z,2.80
2023-05-06T03:40:39.124Z,2.60
2023-05-06T03:43:07.696Z,2.40
2023-05-06T03:45:36.164Z,3.10
2023-05-06T03:48:06.536Z,2.60
2023-05-06T03:50:39.108Z,2.83
2023-05-06T03:53:07.505Z,2.75
2023-05-06T03:55:37.909Z,2.58
2023-05-06T03:58:07.370Z,2.83
2023-05-06T04:00:36.215Z,2.58
2023-05-06T04:03:04.583Z,2.80
2023-05-06T04:05:42.140Z,2.30
2023-05-06T04:08:12.584Z,2.97
2023-05-06T04:10:41.934Z,2.35
2023-05-06T04:13:18.489Z,3.00
2023-05-06T04:15:47.947Z,2.65
2023-05-06T04:18:21.111Z,2.47
2023-05-06T04:21:00.184Z,2.45
2023-05-06T04:23:30.001Z,2.20
2023-05-06T04:25:59.335Z,2.40
2023-05-06T04:28:29.374Z,2.33
2023-05-06T04:30:57.836Z,2.00
2023-05-06T04:33:35.743Z,2.30
2023-05-06T04:36:10.068Z,2.25
2023-05-06T04:38:41.838Z,2.13
2023-05-06T04:41:12.180Z,2.53
2023-05-06T04:43:41.480Z,3.08
2023-05-06T04:46:17.310Z,2.78
2023-05-06T04:48:47.018Z,3.10
2023-05-06T04:51:18.271Z,2.22
2023-05-06T04:53:47.768Z,1.77
2023-05-06T04:56:16.166Z,2.10
2023-05-06T04:58:44.581Z,2.50
2023-05-06T05:01:12.946Z,2.30
2023-05-06T05:03:41.231Z,2.00
2023-05-06T05:06:11.456Z,2.17
2023-05-06T05:08:41.263Z,2.30
2023-05-06T05:11:10.787Z,2.45
2023-05-06T05:13:39.411Z,2.30
2023-05-06T05:16:08.123Z,2.28
2023-05-06T05:18:39.440Z,1.90
2023-05-06T05:21:15.055Z,2.05
2023-05-06T05:23:44.920Z,2.13
2023-05-06T05:26:13.149Z,2.10
2023-05-06T05:28:43.610Z,1.80
2023-05-06T05:31:12.231Z,2.10
2023-05-06T05:33:40.620Z,2.00
2023-05-06T05:36:15.409Z,2.50
2023-05-06T05:38:47.844Z,2.20
2023-05-06T05:41:17.609Z,2.38
2023-05-06T05:43:46.842Z,2.17
2023-05-06T05:46:17.002Z,1.98
2023-05-06T05:48:47.635Z,2.67
2023-05-06T05:51:16.095Z,2.15
2023-05-06T05:53:47.296Z,2.20
2023-05-06T05:56:16.695Z,2.73
2023-05-06T05:58:47.731Z,2.40
2023-05-06T06:01:16.396Z,2.30
2023-05-06T06:03:44.762Z,2.20
2023-05-06T06:06:13.337Z,2.10
2023-05-06T06:08:41.934Z,2.17
2023-05-06T06:11:12.443Z,2.30
2023-05-06T06:13:42.807Z,2.38
2023-05-06T06:16:11.939Z,2.40
2023-05-06T06:18:40.293Z,2.17
2023-05-06T06:21:08.594Z,2.70
2023-05-06T06:23:37.332Z,2.08
2023-05-06T06:26:06.898Z,2.40
2023-05-06T06:28:36.949Z,2.55
2023-05-06T06:31:05.391Z,2.22
2023-05-06T06:33:34.510Z,2.47
2023-05-06T06:36:03.107Z,2.38
2023-05-06T06:38:31.390Z,2.60
2023-05-06T06:40:59.778Z,2.95
2023-05-06T06:43:28.087Z,2.72
2023-05-06T06:46:04.883Z,3.40
2023-05-06T06:48:33.292Z,3.22
2023-05-06T06:51:01.618Z,3.40
2023-05-06T06:53:29.860Z,3.83
2023-05-06T06:55:58.299Z,3.70
2023-05-06T06:58:26.649Z,4.68
2023-05-06T07:00:55.037Z,4.53
2023-05-06T07:03:24.755Z,4.57
2023-05-06T07:05:53.096Z,4.80
2023-05-06T07:08:22.365Z,4.80
2023-05-06T07:10:50.682Z,5.45
2023-05-06T07:13:20.745Z,5.15
2023-05-06T07:15:49.288Z,6.05
2023-05-06T07:18:17.685Z,6.25
2023-05-06T07:20:47.436Z,6.15
2023-05-06T07:23:16.034Z,6.28
2023-05-06T07:25:44.349Z,6.65
2023-05-06T07:28:12.618Z,7.10
2023-05-06T07:30:41.095Z,6.75
2023-05-06T07:33:09.274Z,6.45
2023-05-06T07:35:38.158Z,6.85
2023-05-06T07:38:07.779Z,6.57
2023-05-06T07:40:36.069Z,7.47
2023-05-06T07:43:04.899Z,6.85
2023-05-06T07:45:33.248Z,6.75
2023-05-06T07:48:01.613Z,6.70
2023-05-06T07:50:30.006Z,7.38
2023-05-06T07:52:58.339Z,7.93
2023-05-06T07:55:28.030Z,7.43
2023-05-06T07:57:56.362Z,6.65
2023-05-06T08:00:24.829Z,7.63
2023-05-06T08:02:53.176Z,7.63
2023-05-06T08:05:21.724Z,7.97
2023-05-06T08:07:50.367Z,7.05
2023-05-06T08:10:18.901Z,7.00
2023-05-06T08:12:48.829Z,6.43
2023-05-06T08:15:17.864Z,6.70
2023-05-06T08:17:46.254Z,6.97
2023-05-06T08:20:15.320Z,7.43
2023-05-06T08:22:43.770Z,6.93
2023-05-06T08:25:12.239Z,7.38
2023-05-06T08:27:41.050Z,6.80
2023-05-06T08:30:12.025Z,7.22
2023-05-06T08:32:40.905Z,6.80
2023-05-06T08:35:10.266Z,7.07
2023-05-06T08:37:38.872Z,6.30
2023-05-06T08:40:16.838Z,6.20
2023-05-06T08:42:48.253Z,7.18
2023-05-06T08:45:18.886Z,6.43
2023-05-06T08:47:48.084Z,6.50
2023-05-06T08:50:16.693Z,7.03
2023-05-06T08:52:45.578Z,5.95
2023-05-06T08:55:14.429Z,5.55
2023-05-06T08:57:45.783Z,5.65
2023-05-06T09:00:15.107Z,5.70
2023-05-06T09:02:44.915Z,6.00
2023-05-06T09:05:13.620Z,5.93
2023-05-06T09:07:42.016Z,5.57
2023-05-06T09:10:15.510Z,5.05
2023-05-06T09:12:44.599Z,5.72
2023-05-06T09:15:13.519Z,6.00
2023-05-06T09:17:42.093Z,5.53
2023-05-06T09:20:13.649Z,5.13
2023-05-06T09:22:42.525Z,4.72
2023-05-06T09:25:12.088Z,5.22
2023-05-06T09:27:41.358Z,5.80
2023-05-06T09:30:12.307Z,5.13
2023-05-06T09:32:41.785Z,5.75
2023-05-06T09:35:12.355Z,5.40
2023-05-06T09:37:41.036Z,6.20
2023-05-06T09:40:11.032Z,7.07
2023-05-06T09:42:39.511Z,7.13
2023-05-06T09:45:10.759Z,6.97
2023-05-06T09:47:39.431Z,6.40
2023-05-06T09:50:14.574Z,7.03
2023-05-06T09:52:46.316Z,6.97
2023-05-06T09:55:15.467Z,7.05
2023-05-06T09:57:45.271Z,6.13
2023-05-06T10:00:14.720Z,6.53
2023-05-06T10:02:44.719Z,7.35
2023-05-06T10:05:14.951Z,6.68
2023-05-06T10:07:43.668Z,6.18
2023-05-06T10:10:13.474Z,6.05
2023-05-06T10:12:41.978Z,6.45
2023-05-06T10:15:13.598Z,6.07
2023-05-06T10:17:47.434Z,6.22
2023-05-06T10:20:18.672Z,6.45
2023-05-06T10:22:57.321Z,6.88
2023-05-06T10:25:33.049Z,6.18
2023-05-06T10:28:02.113Z,5.93
2023-05-06T10:30:34.046Z,6.85
2023-05-06T10:33:06.425Z,6.43
2023-05-06T10:35:49.175Z,6.88
2023-05-06T10:38:24.156Z,6.80
2023-05-06T10:40:53.676Z,6.30
2023-05-06T10:43:24.667Z,6.25
2023-05-06T10:46:04.099Z,5.78
2023-05-06T10:48:33.625Z,6.22
2023-05-06T10:51:25.898Z,5.60
2023-05-06T10:54:03.784Z,4.93
2023-05-06T10:56:33.625Z,6.00
2023-05-06T10:59:08.794Z,5.70
2023-05-06T11:01:38.002Z,5.68
2023-05-06T11:04:08.252Z,5.00
2023-05-06T11:06:41.257Z,5.32
2023-05-06T11:09:18.205Z,4.47
2023-05-06T11:11:58.953Z,5.07
2023-05-06T11:14:31.432Z,5.50
2023-05-06T11:17:01.563Z,5.10
2023-05-06T11:19:31.694Z,5.20
2023-05-06T11:22:03.880Z,5.07
2023-05-06T11:24:39.553Z,4.70
2023-05-06T11:27:09.363Z,4.30
2023-05-06T11:29:37.901Z,4.15
2023-05-06T11:32:19.741Z,5.10
2023-05-06T11:37:27.418Z,4.68
2023-05-06T11:39:56.303Z,4.57
2023-05-06T11:42:28.826Z,4.50
2023-05-06T11:45:01.541Z,4.50
2023-05-06T11:47:29.807Z,4.65
2023-05-06T11:49:59.009Z,4.55
2023-05-06T11:52:31.211Z,4.47
2023-05-06T11:54:59.679Z,4.18
2023-05-06T11:57:27.894Z,4.25
2023-05-06T11:59:56.309Z,4.38
2023-05-06T12:02:24.677Z,4.30
2023-05-06T12:04:53.271Z,4.10
2023-05-06T12:07:22.133Z,4.13
2023-05-06T12:09:52.744Z,3.97
2023-05-06T12:12:25.042Z,4.57
2023-05-06T12:14:54.646Z,4.32
2023-05-06T12:17:23.314Z,4.63
2023-05-06T12:19:51.956Z,4.57
2023-05-06T12:22:22.343Z,4.25
2023-05-06T12:24:52.298Z,4.15
2023-05-06T12:27:33.656Z,4.15
2023-05-06T12:30:04.270Z,4.40
2023-05-06T12:32:33.551Z,4.17
2023-05-06T12:35:05.759Z,4.57
2023-05-06T12:37:34.330Z,4.20
2023-05-06T12:40:03.997Z,4.57
2023-05-06T12:42:32.594Z,4.18
2023-05-06T12:45:14.637Z,4.25
2023-05-06T12:47:53.902Z,4.15
2023-05-06T12:50:36.518Z,4.63
2023-05-06T12:53:05.650Z,4.28
2023-05-06T12:55:35.957Z,5.35
2023-05-06T12:58:04.539Z,5.20
2023-05-06T13:00:32.843Z,5.03
2023-05-06T13:03:01.547Z,5.22
2023-05-06T13:05:29.895Z,5.38
2023-05-06T13:07:58.353Z,5.10
2023-05-06T13:10:27.010Z,4.80
2023-05-06T13:12:56.723Z,4.80
2023-05-06T13:15:25.606Z,4.85
2023-05-06T13:17:54.107Z,4.18
2023-05-06T13:20:22.846Z,4.10
2023-05-06T13:22:54.917Z,4.32
2023-05-06T13:25:23.847Z,3.90
2023-05-06T13:27:52.146Z,4.60
2023-05-06T13:30:21.866Z,4.75
2023-05-06T13:32:50.202Z,5.65
2023-05-06T13:35:18.674Z,7.75
2023-05-06T13:37:46.990Z,7.38
2023-05-06T13:40:15.885Z,6.03
2023-05-06T13:42:44.119Z,5.43
2023-05-06T13:45:12.792Z,5.00
2023-05-06T13:47:43.061Z,5.40
2023-05-06T13:50:12.559Z,5.82
2023-05-06T13:52:41.060Z,5.78
2023-05-06T13:55:10.528Z,5.07
2023-05-06T13:57:39.632Z,5.03
2023-05-06T14:00:10.895Z,4.47
2023-05-06T14:02:39.309Z,4.65
2023-05-06T14:05:09.977Z,4.15
2023-05-06T14:07:40.451Z,4.53
2023-05-06T14:10:10.238Z,4.20
2023-05-06T14:12:38.790Z,4.15
2023-05-06T14:15:08.244Z,4.38
2023-05-06T14:17:37.305Z,4.63
2023-05-06T14:20:09.099Z,5.22
2023-05-06T14:22:37.992Z,4.63
2023-05-06T14:25:07.435Z,4.03
2023-05-06T14:27:36.017Z,4.43
2023-05-06T14:30:08.249Z,4.88
2023-05-06T14:32:37.845Z,4.40
2023-05-06T14:35:08.988Z,4.50
2023-05-06T14:40:07.228Z,4.03
2023-05-06T14:42:35.947Z,4.25
2023-05-06T14:45:04.520Z,4.22
2023-05-06T14:47:32.863Z,4.03
2023-05-06T14:50:01.644Z,4.70
2023-05-06T14:52:31.594Z,4.80
2023-05-06T14:54:59.907Z,4.60
2023-05-06T14:57:28.117Z,4.75
2023-05-06T14:59:56.515Z,4.57
2023-05-06T15:02:24.805Z,4.40
2023-05-06T15:04:53.056Z,4.93
2023-05-06T15:07:21.444Z,5.30
2023-05-06T15:09:50.988Z,5.30
2023-05-06T15:12:21.100Z,5.95
2023-05-06T15:14:49.383Z,6.43
2023-05-06T15:17:17.917Z,6.13
2023-05-06T15:19:46.189Z,6.38
2023-05-06T15:22:14.484Z,4.68
2023-05-06T15:24:42.956Z,4.55
2023-05-06T15:27:12.555Z,4.82
2023-05-06T15:29:41.147Z,5.47
2023-05-06T15:32:09.504Z,5.30
2023-05-06T15:34:37.866Z,5.60
2023-05-06T15:37:06.360Z,5.30
2023-05-06T15:39:38.035Z,7.47
2023-05-06T15:42:07.242Z,7.10
2023-05-06T15:44:37.550Z,7.53
2023-05-06T15:47:06.238Z,6.65
2023-05-06T15:49:51.593Z,6.97
2023-05-06T15:52:22.700Z,6.85
2023-05-06T15:54:50.951Z,6.35
2023-05-06T15:57:19.311Z,5.88
2023-05-06T15:59:48.944Z,6.13
2023-05-06T16:04:48.877Z,6.50
2023-05-06T16:07:17.512Z,5.50
2023-05-06T16:09:45.832Z,6.07
2023-05-06T16:12:15.020Z,5.63
2023-05-06T16:14:43.272Z,5.35
2023-05-06T16:17:13.068Z,5.10
2023-05-06T16:19:41.447Z,4.50
2023-05-06T16:22:09.700Z,4.65
2023-05-06T16:24:37.978Z,4.10
2023-05-06T16:27:06.446Z,4.05
2023-05-06T16:29:34.738Z,4.45
2023-05-06T16:32:03.735Z,4.15
2023-05-06T16:34:33.404Z,3.83
2023-05-06T16:37:01.645Z,3.53
2023-05-06T16:39:30.027Z,3.70
2023-05-06T16:41:58.380Z,3.50
2023-05-06T16:44:26.557Z,3.70
2023-05-06T16:46:56.844Z,3.72
2023-05-06T16:49:27.945Z,3.88
2023-05-06T16:51:58.359Z,3.38
2023-05-06T16:54:26.587Z,3.45
2023-05-06T16:56:55.073Z,3.88
2023-05-06T16:59:23.595Z,3.72
2023-05-06T17:01:52.779Z,3.72
2023-05-06T17:04:21.100Z,3.30
2023-05-06T17:06:49.316Z,3.22
2023-05-06T17:09:19.081Z,3.50
2023-05-06T17:11:47.691Z,3.03
2023-05-06T17:14:15.980Z,3.30
2023-05-06T17:16:45.373Z,3.75
2023-05-06T17:19:13.762Z,3.22
2023-05-06T17:21:42.615Z,3.35
2023-05-06T17:24:11.215Z,3.28
2023-05-06T17:26:41.760Z,3.55
2023-05-06T17:29:10.041Z,3.20
2023-05-06T17:31:38.403Z,3.47
2023-05-06T17:34:06.664Z,3.67
2023-05-06T17:36:34.945Z,3.03
2023-05-06T17:39:03.713Z,3.70
2023-05-06T17:41:32.087Z,2.92
2023-05-06T17:44:01.712Z,3.47
2023-05-06T17:46:30.180Z,3.10
2023-05-06T17:48:58.379Z,3.10
2023-05-06T17:51:26.900Z,3.55
2023-05-06T17:53:55.221Z,2.60
2023-05-06T17:56:23.498Z,2.72
2023-05-06T17:58:51.870Z,2.95
2023-05-06T18:01:21.497Z,3.28
2023-05-06T18:03:49.852Z,2.80
2023-05-06T18:06:18.675Z,2.90
2023-05-06T18:08:47.050Z,3.15
2023-05-06T18:11:15.531Z,2.88
2023-05-06T18:13:43.885Z,2.95
2023-05-06T18:16:12.173Z,3.08
2023-05-06T18:18:41.932Z,2.97
2023-05-06T18:21:10.341Z,3.03
2023-05-06T18:23:38.600Z,3.00
2023-05-06T18:26:07.245Z,2.75
2023-05-06T18:28:38.397Z,2.65
2023-05-06T18:31:07.374Z,3.03
2023-05-06T18:33:36.252Z,3.00
2023-05-06T18:36:06.472Z,2.83
2023-05-06T18:38:34.707Z,3.10
2023-05-06T18:41:03.440Z,3.22
2023-05-06T18:43:31.908Z,3.08
2023-05-06T18:46:00.273Z,2.70
2023-05-06T18:48:30.890Z,3.83
2023-05-06T18:51:12.191Z,3.28
2023-05-06T18:53:40.848Z,3.38
2023-05-06T18:56:09.685Z,3.22
2023-05-06T18:58:39.691Z,3.53
2023-05-06T19:01:09.244Z,3.20
2023-05-06T19:03:38.860Z,2.95
2023-05-06T19:06:09.172Z,3.28
2023-05-06T19:08:39.313Z,3.05
2023-05-06T19:11:14.492Z,3.13
2023-05-06T19:13:43.540Z,3.80
2023-05-06T19:16:11.892Z,3.85
2023-05-06T19:18:40.298Z,4.03
2023-05-06T19:21:10.788Z,4.10
2023-05-06T19:23:40.529Z,75.63
2023-05-06T19:26:10.944Z,112.70
2023-05-06T19:28:41.440Z,133.35
2023-05-06T19:31:10.438Z,136.98
2023-05-06T19:33:38.984Z,133.65
2023-05-06T19:36:08.878Z,164.07
2023-05-06T19:38:37.189Z,150.73
2023-05-06T19:41:08.392Z,134.25
2023-05-06T19:43:42.017Z,114.65
2023-05-06T19:46:10.748Z,89.15
2023-05-06T19:48:39.524Z,209.35
2023-05-06T19:51:08.230Z,216.18
2023-05-06T19:53:37.541Z,208.93
2023-05-06T19:56:17.160Z,233.07
2023-05-06T19:58:45.826Z,212.93
2023-05-06T20:01:14.090Z,188.35
2023-05-06T20:03:42.810Z,149.93
2023-05-06T20:06:11.269Z,172.43
2023-05-06T20:08:39.625Z,143.35
2023-05-06T20:11:07.918Z,108.15
2023-05-06T20:13:37.657Z,139.50
2023-05-06T20:16:06.735Z,115.90
2023-05-06T20:18:35.537Z,117.80
2023-05-06T20:21:03.907Z,224.27
2023-05-06T20:23:32.150Z,165.98
2023-05-06T20:26:00.412Z,130.27
2023-05-06T20:28:29.257Z,124.25
2023-05-06T20:30:59.815Z,120.25
2023-05-06T20:33:28.162Z,104.40
2023-05-06T20:35:56.460Z,79.82
2023-05-06T20:38:26.962Z,57.60
2023-05-06T20:40:55.401Z,66.28
2023-05-06T20:43:23.642Z,58.53
2023-05-06T20:45:52.093Z,43.00
2023-05-06T20:48:21.644Z,38.22
2023-05-06T20:50:50.190Z,25.40
2023-05-06T20:53:18.505Z,21.70
2023-05-06T20:55:46.715Z,17.80
2023-05-06T20:58:15.134Z,16.85
2023-05-06T21:00:43.575Z,15.38
2023-05-06T21:03:11.971Z,15.65
2023-05-06T21:05:41.890Z,13.02
2023-05-06T21:08:10.154Z,12.48
2023-05-06T21:10:38.422Z,11.73
2023-05-06T21:13:06.945Z,11.35
2023-05-06T21:15:35.792Z,11.07
2023-05-06T21:18:04.830Z,11.10
2023-05-06T21:20:33.114Z,11.48
2023-05-06T21:23:03.522Z,11.15
2023-05-06T21:25:31.811Z,9.93
2023-05-06T21:28:04.458Z,10.32
2023-05-06T21:30:32.756Z,10.98
2023-05-06T21:33:01.111Z,9.95
2023-05-06T21:35:30.956Z,10.25
2023-05-06T21:37:59.201Z,10.68
2023-05-06T21:40:29.086Z,10.32
2023-05-06T21:42:58.004Z,10.38
2023-05-06T21:45:26.520Z,10.55
2023-05-06T21:47:54.889Z,10.75
2023-05-06T21:50:23.408Z,9.77
2023-05-06T21:52:51.743Z,9.93
2023-05-06T21:55:20.796Z,9.77
2023-05-06T21:57:50.852Z,9.65
2023-05-06T22:00:19.728Z,9.10
2023-05-06T22:02:48.147Z,9.63
2023-05-06T22:05:16.531Z,8.88
2023-05-06T22:07:44.832Z,9.20
2023-05-06T22:10:13.618Z,9.63
2023-05-06T22:12:42.940Z,9.65
2023-05-06T22:15:14.708Z,8.98
2023-05-06T22:17:43.017Z,10.00
2023-05-06T22:20:12.076Z,8.50
2023-05-06T22:22:40.462Z,8.23
2023-05-06T22:25:09.601Z,8.82
2023-05-06T22:27:38.167Z,9.18
2023-05-06T22:30:08.280Z,9.45
2023-05-06T22:32:38.092Z,9.02
2023-05-06T22:35:07.540Z,8.48
2023-05-06T22:37:35.974Z,8.57
2023-05-06T22:40:05.049Z,8.80
2023-05-06T22:42:33.429Z,8.80
2023-05-06T22:45:01.934Z,8.77
2023-05-06T22:47:30.169Z,8.50
2023-05-06T22:49:59.838Z,8.52
2023-05-06T22:52:28.115Z,8.63
2023-05-06T22:54:56.348Z,8.52
2023-05-06T22:57:25.371Z,8.68
2023-05-06T22:59:53.779Z,8.30
2023-05-06T23:02:22.044Z,8.27
2023-05-06T23:04:50.318Z,8.05
2023-05-06T23:07:19.958Z,8.02
2023-05-06T23:09:48.200Z,8.18
2023-05-06T23:12:16.477Z,7.55
2023-05-06T23:14:44.779Z,8.25
2023-05-06T23:17:13.045Z,8.32
2023-05-06T23:19:41.410Z,8.00
2023-05-06T23:22:09.965Z,8.48
2023-05-06T23:24:39.612Z,8.35
2023-05-06T23:27:07.884Z,8.48
2023-05-06T23:29:36.007Z,8.68
2023-05-06T23:32:04.461Z,7.78
2023-05-06T23:34:32.769Z,8.35
2023-05-06T23:37:02.765Z,8.05
2023-05-06T23:39:31.050Z,9.13
2023-05-06T23:42:00.876Z,8.50
2023-05-06T23:44:29.233Z,8.38
2023-05-06T23:46:57.511Z,7.75
2023-05-06T23:49:25.842Z,8.90
2023-05-06T23:51:54.132Z,7.88
2023-05-06T23:54:22.355Z,7.93
2023-05-06T23:56:50.836Z,8.07
2023-05-06T23:59:20.380Z,7.78
